sensor_id;sensor_type;location;lat;lon;timestamp;temperature;humidity
3912;DHT22;1971;51.778;10.330;2023-12-07T13:21:18;1.60;99.90
3912;DHT22;1971;51.778;10.330;2023-12-07T13:23:49;1.50;99.90
3912;DHT22;1971;51.778;10.330;2023-12-07T13:26:19;1.70;99.90
3912;DHT22;1971;51.778;10.330;2023-12-07T13:28:51;1.80;99.90
3912;DHT22;1971;51.778;10.330;2023-12-07T13:31:21;2.20;99.90
3912;DHT22;1971;51.778;10.330;2023-12-07T13:33:52;1.90;99.90
3912;DHT22;1971;51.778;10.330;2023-12-07T13:36:30;2.10;99.90
3912;DHT22;1971;51.778;10.330;2023-12-07T13:39:02;2.00;99.90
3912;DHT22;1971;51.778;10.330;2023-12-07T13:41:36;2.20;99.90
3912;DHT22;1971;51.778;10.330;2023-12-07T13:44:06;2.10;99.90
3912;DHT22;1971;51.778;10.330;2023-12-07T13:46:42;1.80;99.90
3912;DHT22;1971;51.778;10.330;2023-12-07T13:49:15;2.00;99.90
3912;DHT22;1971;51.778;10.330;2023-12-07T13:51:57;2.40;99.90
3912;DHT22;1971;51.778;10.330;2023-12-07T13:54:33;2.10;90.10
3912;DHT22;1971;51.778;10.330;2023-12-07T13:57:06;2.10;99.90
3912;DHT22;1971;51.778;10.330;2023-12-07T13:59:38;1.90;99.90
3912;DHT22;1971;51.778;10.330;2023-12-07T14:02:08;1.80;99.90
3912;DHT22;1971;51.778;10.330;2023-12-07T14:04:39;1.80;99.90
3912;DHT22;1971;51.778;10.330;2023-12-07T14:07:14;1.80;99.90
3912;DHT22;1971;51.778;10.330;2023-12-07T14:09:45;2.10;99.90
3912;DHT22;1971;51.778;10.330;2023-12-07T14:12:24;1.50;99.90
3912;DHT22;1971;51.778;10.330;2023-12-07T14:14:56;1.80;99.90
3912;DHT22;1971;51.778;10.330;2023-12-07T14:17:26;1.40;99.90
3912;DHT22;1971;51.778;10.330;2023-12-07T14:20:13;1.50;99.90
3912;DHT22;1971;51.778;10.330;2023-12-07T14:23:05;1.40;99.90
3912;DHT22;1971;51.778;10.330;2023-12-07T14:25:36;1.20;99.90
3912;DHT22;1971;51.778;10.330;2023-12-07T14:28:07;1.60;99.90
3912;DHT22;1971;51.778;10.330;2023-12-07T14:30:37;1.40;99.90
3912;DHT22;1971;51.778;10.330;2023-12-07T14:33:08;1.30;99.90
3912;DHT22;1971;51.778;10.330;2023-12-07T14:35:39;1.00;99.90
3912;DHT22;1971;51.778;10.330;2023-12-07T14:38:13;0.80;99.90
3912;DHT22;1971;51.778;10.330;2023-12-07T14:40:43;0.60;99.90
3912;DHT22;1971;51.778;10.330;2023-12-07T14:43:15;0.70;99.90
3912;DHT22;1971;51.778;10.330;2023-12-07T14:45:48;0.20;99.90
3912;DHT22;1971;51.778;10.330;2023-12-07T14:48:19;0.10;99.90
3912;DHT22;1971;51.778;10.330;2023-12-07T14:50:50;0.10;99.90
3912;DHT22;1971;51.778;10.330;2023-12-07T14:53:24;0.00;99.90
3912;DHT22;1971;51.778;10.330;2023-12-07T14:55:55;-0.60;99.90
3912;DHT22;1971;51.778;10.330;2023-12-07T14:58:26;-0.50;99.90
3912;DHT22;1971;51.778;10.330;2023-12-07T15:00:56;-0.80;99.90
3912;DHT22;1971;51.778;10.330;2023-12-07T15:03:26;-0.50;99.90
3912;DHT22;1971;51.778;10.330;2023-12-07T15:05:58;-0.70;99.90
3912;DHT22;1971;51.778;10.330;2023-12-07T15:08:32;-0.80;99.90
3912;DHT22;1971;51.778;10.330;2023-12-07T15:11:03;-1.10;99.90
3912;DHT22;1971;51.778;10.330;2023-12-07T15:13:39;-1.00;99.90
3912;DHT22;1971;51.778;10.330;2023-12-07T15:16:12;-1.00;99.90
3912;DHT22;1971;51.778;10.330;2023-12-07T15:18:57;-1.00;99.90
